Time;durP1;ratioP1;P1;durP2;ratioP2;P2;SDS_P1;SDS_P2;PMS_P1;PMS_P2;Temp;Humidity;BMP_temperature;BMP_pressure;BME280_temperature;BME280_humidity;BME280_pressure;Samples;Min_cycle;Max_cycle;Signal;HPM_P1;HPM_P2
2021/05/03 00:00:05;;;;;;;5.68;3.17;;;;;;;4.91;79.88;100799.88;5023926;28;20493;-75
2021/05/03 00:02:34;;;;;;;5.88;3.08;;;;;;;4.88;79.63;100797.19;5025048;28;20052;-75
2021/05/03 00:04:59;;;;;;;5.22;3.38;;;;;;;4.79;79.81;100796.16;5023817;28;20087;-75
2021/05/03 00:07:25;;;;;;;5.72;3.50;;;;;;;4.72;80.08;100796.84;5021482;28;20042;-74
2021/05/03 00:09:50;;;;;;;7.82;3.40;;;;;;;4.65;80.34;100800.19;5024842;28;20179;-74
2021/05/03 00:12:15;;;;;;;5.78;3.53;;;;;;;4.57;80.77;100804.34;5023837;28;20044;-75
2021/05/03 00:14:41;;;;;;;6.10;3.92;;;;;;;4.51;80.98;100799.00;5022446;28;20042;-74
2021/05/03 00:17:06;;;;;;;7.13;3.45;;;;;;;4.45;80.87;100807.56;5024399;28;20037;-74
2021/05/03 00:19:31;;;;;;;5.45;3.50;;;;;;;4.38;81.41;100801.31;5024274;28;20036;-74
2021/05/03 00:21:57;;;;;;;5.13;3.42;;;;;;;4.34;81.24;100809.06;5022202;28;20461;-74
2021/05/03 00:24:22;;;;;;;6.53;3.63;;;;;;;4.31;81.67;100812.47;5023930;28;20509;-74
2021/05/03 00:26:47;;;;;;;5.90;3.10;;;;;;;4.28;81.52;100817.63;5023945;28;20584;-74
2021/05/03 00:29:13;;;;;;;7.97;3.95;;;;;;;4.23;81.72;100816.63;5025714;28;20037;-73
2021/05/03 00:31:38;;;;;;;7.00;3.92;;;;;;;4.16;81.86;100820.81;5022880;28;20048;-74
2021/05/03 00:34:04;;;;;;;9.38;3.75;;;;;;;4.11;82.36;100816.31;5024432;28;20083;-74
2021/05/03 00:36:30;;;;;;;5.78;3.92;;;;;;;4.04;82.41;100822.28;5022756;28;20041;-73
2021/05/03 00:38:55;;;;;;;9.70;4.20;;;;;;;4.01;82.48;100819.56;5022320;28;20053;-73
2021/05/03 00:41:20;;;;;;;6.65;4.25;;;;;;;3.97;82.61;100822.94;5023967;28;20029;-71
2021/05/03 00:43:46;;;;;;;5.40;3.67;;;;;;;3.92;82.71;100828.03;5023106;28;20034;-74
2021/05/03 00:46:16;;;;;;;7.47;4.15;;;;;;;3.86;82.38;100820.94;5021990;28;20391;-74
2021/05/03 00:48:42;;;;;;;6.18;3.78;;;;;;;3.90;82.38;100828.03;5022000;28;20087;-74
2021/05/03 00:51:07;;;;;;;6.47;4.13;;;;;;;3.88;81.97;100828.84;5024208;28;20116;-73
2021/05/03 00:53:32;;;;;;;5.78;3.63;;;;;;;3.91;81.90;100834.13;5021505;28;20045;-76
2021/05/03 00:55:58;;;;;;;6.78;3.78;;;;;;;3.93;81.83;100825.50;5021440;28;20184;-75
2021/05/03 00:58:23;;;;;;;8.35;3.50;;;;;;;3.93;81.41;100830.72;5023955;28;20037;-75
2021/05/03 01:00:48;;;;;;;7.43;3.70;;;;;;;3.95;81.24;100830.72;5022095;28;20048;-75
2021/05/03 01:03:14;;;;;;;6.78;3.42;;;;;;;4.02;81.09;100834.41;5021859;28;20037;-75
2021/05/03 01:05:39;;;;;;;4.78;3.28;;;;;;;4.05;80.75;100829.25;5023979;28;20067;-75
2021/05/03 01:08:04;;;;;;;6.03;3.20;;;;;;;4.09;80.60;100838.94;5022492;28;20120;-75
2021/05/03 01:10:30;;;;;;;6.55;3.50;;;;;;;4.05;80.79;100837.09;5020131;28;20038;-74
2021/05/03 01:12:57;;;;;;;5.20;3.15;;;;;;;4.04;80.38;100841.44;5021197;28;20237;-75
2021/05/03 01:15:23;;;;;;;7.65;3.20;;;;;;;4.02;80.47;100834.41;5022192;28;20038;-74
2021/05/03 01:17:57;;;;;;;6.10;3.22;;;;;;;4.03;80.45;100838.75;5023736;28;20112;-74
2021/05/03 01:20:25;;;;;;;6.10;3.22;;;;;;;4.04;80.44;100837.94;5023499;28;20432;-74
2021/05/03 01:22:54;;;;;;;5.82;3.30;;;;;;;4.03;80.60;100844.88;5021062;28;20033;-74
2021/05/03 01:25:19;;;;;;;5.15;3.38;;;;;;;4.10;80.29;100851.13;5020498;28;20038;-75
2021/05/03 01:27:45;;;;;;;7.25;3.65;;;;;;;4.10;79.62;100846.78;5023607;28;20044;-75
2021/05/03 01:30:12;;;;;;;5.63;3.20;;;;;;;4.09;80.12;100839.81;5022230;28;20490;-74
2021/05/03 01:32:38;;;;;;;5.68;3.33;;;;;;;4.07;80.33;100845.84;5020898;28;20065;-74
2021/05/03 01:35:04;;;;;;;5.03;3.08;;;;;;;4.19;79.74;100846.13;5022856;28;20044;-75
2021/05/03 01:37:30;;;;;;;7.07;3.65;;;;;;;4.18;79.74;100847.88;5022986;28;20124;-75
2021/05/03 01:39:55;;;;;;;6.38;3.80;;;;;;;4.18;79.53;100847.00;5019828;28;20128;-75
2021/05/03 01:42:22;;;;;;;6.28;4.15;;;;;;;4.15;79.93;100849.53;5022066;28;20034;-75
2021/05/03 01:44:48;;;;;;;6.25;3.75;;;;;;;4.15;79.59;100844.31;5023158;28;20063;-75
2021/05/03 01:47:13;;;;;;;5.63;3.95;;;;;;;4.20;79.08;100853.13;5016748;28;20077;-74
2021/05/03 01:49:40;;;;;;;7.13;3.83;;;;;;;4.16;79.77;100859.13;5022611;28;20474;-74
2021/05/03 01:52:06;;;;;;;7.72;4.32;;;;;;;4.15;79.50;100855.63;5020375;28;20052;-75
2021/05/03 01:54:32;;;;;;;7.43;4.32;;;;;;;4.09;79.84;100862.44;5021742;28;20034;-74
2021/05/03 01:56:58;;;;;;;6.38;3.70;;;;;;;4.04;79.99;100858.84;5023070;28;20512;-75
2021/05/03 01:59:30;;;;;;;7.28;4.35;;;;;;;4.01;80.30;100861.34;5021153;28;20029;-74
2021/05/03 02:01:55;;;;;;;6.95;4.07;;;;;;;4.03;80.16;100859.66;5020606;28;20393;-75
2021/05/03 02:04:21;;;;;;;7.82;4.32;;;;;;;4.05;80.20;100869.31;5022429;28;20044;-74
2021/05/03 02:06:46;;;;;;;7.32;4.75;;;;;;;4.02;79.95;100861.38;5017760;28;20063;-75
2021/05/03 02:09:12;;;;;;;7.85;4.43;;;;;;;4.03;80.10;100864.88;5022745;28;20041;-75
2021/05/03 02:11:39;;;;;;;6.35;4.28;;;;;;;4.05;79.84;100861.47;5021206;28;20045;-74
2021/05/03 02:14:05;;;;;;;9.45;4.38;;;;;;;4.03;79.88;100865.75;5020322;28;20037;-75
2021/05/03 02:16:30;;;;;;;7.40;4.75;;;;;;;3.96;79.86;100863.84;5022360;28;20551;-75
2021/05/03 02:18:56;;;;;;;8.45;4.78;;;;;;;3.90;80.24;100874.13;5021858;28;20044;-75
2021/05/03 02:21:21;;;;;;;7.47;4.93;;;;;;;3.87;80.16;100871.44;5019937;28;20034;-75
2021/05/03 02:23:47;;;;;;;8.80;5.47;;;;;;;3.89;80.10;100875.84;5021651;28;20045;-75
2021/05/03 02:26:12;;;;;;;6.75;4.47;;;;;;;3.89;79.83;100886.28;5021359;28;20052;-75
2021/05/03 02:28:38;;;;;;;8.85;4.10;;;;;;;3.90;79.40;100877.63;5020238;28;20109;-75
2021/05/03 02:31:03;;;;;;;8.18;4.35;;;;;;;3.86;79.59;100888.84;5020075;28;20042;-75
2021/05/03 02:33:29;;;;;;;9.38;4.07;;;;;;;3.88;79.12;100888.88;5024515;28;20033;-75
2021/05/03 02:35:54;;;;;;;8.38;5.30;;;;;;;3.87;79.18;100876.66;5021664;28;20440;-75
2021/05/03 02:38:20;;;;;;;10.55;4.45;;;;;;;3.81;79.10;100882.59;5020736;28;20037;-73
2021/05/03 02:40:45;;;;;;;7.70;4.38;;;;;;;3.87;79.07;100884.50;5019693;28;20088;-75
2021/05/03 02:43:10;;;;;;;6.55;4.13;;;;;;;3.84;79.05;100885.28;5020759;28;20049;-74
2021/05/03 02:45:36;;;;;;;5.57;3.50;;;;;;;3.84;78.55;100879.19;5022327;28;20038;-74
2021/05/03 02:48:02;;;;;;;7.40;3.65;;;;;;;3.89;78.22;100883.69;5015590;28;20488;-74
2021/05/03 02:50:28;;;;;;;7.18;3.60;;;;;;;3.85;78.08;100881.84;5023099;28;20045;-76
2021/05/03 02:52:54;;;;;;;7.65;3.53;;;;;;;3.84;78.21;100887.91;5023787;28;20125;-75
2021/05/03 02:55:20;;;;;;;9.80;3.80;;;;;;;3.83;78.04;100877.44;5025510;28;20124;-76
2021/05/03 02:57:47;;;;;;;7.00;3.30;;;;;;;3.82;78.22;100892.19;5021319;28;20038;-75
2021/05/03 03:00:19;;;;;;;7.50;3.58;;;;;;;3.84;77.56;100906.19;5025837;28;20041;-75
2021/05/03 03:02:45;;;;;;;5.70;3.30;;;;;;;3.92;77.26;100901.16;5025938;28;20481;-75
2021/05/03 03:05:10;;;;;;;6.63;3.30;;;;;;;3.96;77.20;100905.63;5024088;28;20045;-75
2021/05/03 03:07:36;;;;;;;6.63;3.40;;;;;;;3.98;77.31;100908.28;5023244;28;20026;-75
2021/05/03 03:10:01;;;;;;;7.25;3.38;;;;;;;4.06;76.85;100909.34;5024771;28;20187;-75
2021/05/03 03:12:26;;;;;;;7.03;3.53;;;;;;;4.01;76.84;100908.34;5029533;28;20056;-75
2021/05/03 03:14:52;;;;;;;6.75;3.65;;;;;;;3.95;76.76;100911.69;5025649;28;20060;-75
2021/05/03 03:17:17;;;;;;;5.80;3.25;;;;;;;3.91;77.15;100921.19;5039206;28;20036;-75
2021/05/03 03:19:43;;;;;;;7.45;4.32;;;;;;;3.85;77.25;100917.50;5030691;28;20041;-75
2021/05/03 03:22:09;;;;;;;8.30;3.72;;;;;;;3.85;77.44;100923.63;5023188;28;20482;-76
2021/05/03 03:24:35;;;;;;;9.70;4.53;;;;;;;3.81;77.22;100921.75;5025317;28;20033;-75
2021/05/03 03:27:00;;;;;;;8.60;3.72;;;;;;;3.81;76.75;100929.59;5030952;28;20037;-76
2021/05/03 03:29:26;;;;;;;5.88;3.35;;;;;;;3.79;77.56;100923.44;5025000;28;20456;-75
2021/05/03 03:31:51;;;;;;;6.40;3.00;;;;;;;3.73;77.04;100929.38;5036160;28;20037;-75
2021/05/03 03:34:16;;;;;;;7.82;3.60;;;;;;;3.79;76.48;100930.41;5024163;28;20045;-74
2021/05/03 03:36:42;;;;;;;6.75;3.38;;;;;;;3.92;76.16;100925.53;5023283;28;20049;-75
2021/05/03 03:39:08;;;;;;;5.30;3.30;;;;;;;3.97;75.96;100928.28;5023867;28;20418;-75
2021/05/03 03:41:34;;;;;;;8.35;3.17;;;;;;;3.94;75.78;100939.53;5022150;28;20472;-75
2021/05/03 03:44:00;;;;;;;4.43;2.72;;;;;;;3.94;75.85;100938.66;5011112;28;20091;-75
2021/05/03 03:46:25;;;;;;;6.50;2.95;;;;;;;3.94;75.87;100952.59;5025310;28;20080;-75
2021/05/03 03:48:50;;;;;;;8.55;3.28;;;;;;;3.98;75.39;100947.44;5022931;28;20057;-74
2021/05/03 03:51:16;;;;;;;7.38;3.70;;;;;;;4.03;75.28;100948.47;5023871;28;20406;-75
2021/05/03 03:53:41;;;;;;;9.52;3.28;;;;;;;4.01;75.26;100952.75;5025019;28;20500;-74
2021/05/03 03:56:07;;;;;;;6.93;3.03;;;;;;;4.04;75.03;100955.47;5022737;28;20034;-75
2021/05/03 03:58:32;;;;;;;5.90;2.85;;;;;;;4.03;75.15;100951.06;5023401;28;20537;-75
2021/05/03 04:00:58;;;;;;;6.30;3.13;;;;;;;4.06;75.34;100954.66;5024535;28;20037;-75
2021/05/03 04:03:24;;;;;;;9.40;3.13;;;;;;;4.06;75.30;100957.28;5022677;28;20033;-75
2021/05/03 04:26:35;;;;;;;7.88;3.13;;;;;;;4.31;75.64;100974.47;5022447;28;20041;-78
2021/05/03 04:29:00;;;;;;;6.40;3.17;;;;;;;4.45;74.58;100973.94;5023025;28;20124;-75
2021/05/03 04:31:26;;;;;;;4.55;2.70;;;;;;;4.51;75.11;100976.75;5023778;28;20033;-75
2021/05/03 04:33:52;;;;;;;7.95;3.47;;;;;;;4.63;74.76;100973.53;5022022;28;20061;-74
2021/05/03 04:36:18;;;;;;;7.43;2.58;;;;;;;4.72;74.30;100982.50;5023497;28;20037;-74
2021/05/03 04:38:43;;;;;;;10.70;3.33;;;;;;;4.82;74.45;100978.34;5027557;28;20493;-75
2021/05/03 04:41:09;;;;;;;7.03;3.55;;;;;;;4.97;74.16;100985.69;5024093;28;20076;-74
2021/05/03 04:43:36;;;;;;;11.02;3.47;;;;;;;5.03;73.62;100986.75;5023458;28;20103;-74
2021/05/03 04:46:01;;;;;;;6.07;3.50;;;;;;;5.14;73.63;100989.63;5049520;22;20053;-72
2021/05/03 04:48:27;;;;;;;5.32;3.30;;;;;;;5.26;72.85;100996.84;5032899;28;20029;-73
2021/05/03 04:50:54;;;;;;;6.03;2.90;;;;;;;5.21;73.11;100986.31;5039573;28;20040;-72
2021/05/03 04:53:20;;;;;;;6.40;3.00;;;;;;;5.34;72.83;100986.56;5032585;28;20060;-72
2021/05/03 04:55:46;;;;;;;6.93;2.83;;;;;;;5.37;72.72;100992.75;5032720;28;20493;-73
2021/05/03 04:58:11;;;;;;;5.97;3.78;;;;;;;5.44;73.01;100989.41;5032890;28;20116;-72
2021/05/03 05:00:36;;;;;;;8.80;3.10;;;;;;;5.53;72.16;100991.38;5032954;28;20072;-71
2021/05/03 05:03:02;;;;;;;6.68;3.65;;;;;;;5.59;72.08;100994.09;5032405;28;20521;-72
2021/05/03 05:05:28;;;;;;;5.97;3.30;;;;;;;5.64;71.16;101002.06;5032560;28;20481;-72
2021/05/03 05:07:55;;;;;;;5.88;3.42;;;;;;;5.77;70.42;100992.72;5032571;28;20042;-72
2021/05/03 05:10:20;;;;;;;7.05;3.13;;;;;;;5.88;70.23;100996.44;5032556;28;20519;-72
2021/05/03 05:12:46;;;;;;;6.03;3.17;;;;;;;5.92;70.19;101001.78;5032148;28;20064;-72
2021/05/03 05:15:11;;;;;;;8.55;3.40;;;;;;;5.98;70.75;101003.69;5032396;28;20033;-72
2021/05/03 05:17:37;;;;;;;5.72;3.17;;;;;;;6.06;69.70;100998.59;5032472;28;20094;-72
2021/05/03 05:20:04;;;;;;;7.50;3.00;;;;;;;6.06;69.69;101009.94;5032418;28;20045;-72
2021/05/03 05:22:29;;;;;;;5.38;3.28;;;;;;;6.17;69.70;101002.28;5028369;28;20044;-72
2021/05/03 05:24:55;;;;;;;5.68;3.30;;;;;;;6.22;69.75;100998.03;5032119;28;20041;-72
2021/05/03 05:27:20;;;;;;;11.40;3.05;;;;;;;6.24;69.93;100996.31;5032224;28;20033;-72
2021/05/03 05:29:45;;;;;;;5.95;3.17;;;;;;;6.24;69.92;101011.16;5032302;28;20505;-72
2021/05/03 05:32:11;;;;;;;7.22;3.17;;;;;;;6.27;69.56;101009.47;5031962;28;20086;-72
2021/05/03 05:34:36;;;;;;;5.10;2.55;;;;;;;6.32;69.65;101007.84;5032010;28;20075;-72
2021/05/03 05:37:02;;;;;;;6.30;2.78;;;;;;;6.37;68.49;101002.69;5026766;28;20035;-71
2021/05/03 05:39:27;;;;;;;5.05;2.88;;;;;;;6.32;68.51;101010.47;5037696;28;20047;-72
2021/05/03 05:41:53;;;;;;;7.53;3.50;;;;;;;6.24;68.18;101008.56;5032847;28;20060;-72
2021/05/03 05:44:18;;;;;;;6.97;3.30;;;;;;;6.35;67.82;101013.13;5032952;28;20516;-72
2021/05/03 05:46:44;;;;;;;11.07;3.33;;;;;;;6.41;67.78;101022.84;5038340;28;20041;-72
2021/05/03 05:49:10;;;;;;;6.57;3.17;;;;;;;6.46;67.39;101023.81;5038384;28;20037;-73
2021/05/03 05:51:36;;;;;;;6.75;3.50;;;;;;;6.44;67.42;101020.28;5033725;28;20057;-72
2021/05/03 05:54:01;;;;;;;7.43;3.13;;;;;;;6.35;66.79;101027.97;5031612;28;20537;-72
2021/05/03 05:56:26;;;;;;;9.32;4.00;;;;;;;6.33;67.42;101027.06;5031618;28;20037;-72
2021/05/03 05:58:52;;;;;;;4.97;3.50;;;;;;;6.42;67.35;101022.00;5031805;28;20124;-71
2021/05/03 06:01:17;;;;;;;7.03;3.70;;;;;;;6.44;67.54;101019.41;5031405;28;20040;-71
2021/05/03 06:03:43;;;;;;;7.53;3.30;;;;;;;6.49;67.77;101034.34;5031534;28;20038;-72
2021/05/03 06:06:08;;;;;;;5.72;3.10;;;;;;;6.53;66.69;101036.19;5031583;28;20041;-72
2021/05/03 06:08:35;;;;;;;7.00;3.33;;;;;;;6.37;67.34;101031.53;5031435;28;20416;-72
2021/05/03 06:11:00;;;;;;;6.03;3.28;;;;;;;6.49;67.86;101034.34;5031474;28;20041;-72
2021/05/03 06:13:26;;;;;;;5.72;3.30;;;;;;;6.67;67.78;101038.19;5031050;28;20040;-72
2021/05/03 06:15:51;;;;;;;7.30;3.50;;;;;;;6.61;66.32;101036.34;5031638;28;20029;-72
2021/05/03 06:18:17;;;;;;;6.43;3.75;;;;;;;6.55;66.70;101044.09;5031418;28;20045;-72
2021/05/03 06:20:42;;;;;;;7.20;3.33;;;;;;;6.61;66.71;101038.06;5029960;28;20048;-72
2021/05/03 06:23:11;;;;;;;6.65;3.60;;;;;;;6.56;67.45;101044.09;5031276;28;20432;-72
2021/05/03 06:25:36;;;;;;;4.93;3.03;;;;;;;6.58;66.61;101033.66;5026854;28;20041;-72
2021/05/03 06:28:01;;;;;;;6.75;3.35;;;;;;;6.51;67.12;101044.88;5031298;28;20065;-73
2021/05/03 06:30:27;;;;;;;5.25;2.95;;;;;;;6.57;67.17;101035.38;5031187;28;20041;-71
2021/05/03 06:32:53;;;;;;;7.43;3.97;;;;;;;6.69;66.72;101042.59;5030903;28;20060;-72
2021/05/03 06:35:20;;;;;;;5.05;3.58;;;;;;;6.84;66.16;101034.13;5031104;28;20663;-73
2021/05/03 06:37:46;;;;;;;6.90;3.53;;;;;;;6.86;67.33;101044.63;5031067;28;20076;-72
2021/05/03 06:40:12;;;;;;;5.55;3.05;;;;;;;6.95;66.16;101040.41;5031127;28;20041;-72
2021/05/03 06:42:38;;;;;;;5.70;2.63;;;;;;;7.10;66.09;101052.94;5030993;28;20041;-73
2021/05/03 06:45:04;;;;;;;5.70;3.00;;;;;;;6.95;64.58;101064.03;5030770;28;20056;-73
2021/05/03 06:47:30;;;;;;;9.93;2.95;;;;;;;6.81;66.36;101052.41;5029795;28;20124;-72
2021/05/03 06:49:56;;;;;;;7.20;3.33;;;;;;;6.84;65.91;101055.09;5031000;28;20128;-72
2021/05/03 06:52:21;;;;;;;6.18;2.80;;;;;;;6.88;66.03;101048.16;5030613;28;20497;-73
2021/05/03 06:54:47;;;;;;;4.72;2.30;;;;;;;6.87;66.07;101041.16;5030882;28;20040;-73
2021/05/03 06:57:12;;;;;;;5.75;2.67;;;;;;;6.93;66.60;101057.00;5030817;28;20037;-73
2021/05/03 06:59:37;;;;;;;6.07;2.67;;;;;;;6.96;65.67;101051.78;5029485;28;20056;-73
2021/05/03 07:02:03;;;;;;;5.70;2.90;;;;;;;6.88;66.32;101056.91;5030496;28;20044;-73
2021/05/03 07:04:28;;;;;;;6.10;3.08;;;;;;;6.74;65.86;101077.66;5025786;28;20041;-73
2021/05/03 07:06:53;;;;;;;6.68;2.30;;;;;;;6.84;64.97;101076.09;5030732;28;20038;-72
2021/05/03 07:09:19;;;;;;;9.10;2.40;;;;;;;7.07;66.12;101055.47;5030892;28;20044;-73
2021/05/03 07:11:45;;;;;;;6.00;2.60;;;;;;;7.44;64.78;101049.06;5030512;28;20052;-72
2021/05/03 07:14:11;;;;;;;4.20;1.70;;;;;;;7.48;64.89;101052.63;5030710;28;20045;-73
2021/05/03 07:16:36;;;;;;;6.82;2.70;;;;;;;7.52;64.68;101056.16;5030898;28;20029;-73
2021/05/03 07:19:03;;;;;;;3.95;1.90;;;;;;;7.55;61.92;101064.13;5030767;28;20539;-73
2021/05/03 07:21:29;;;;;;;7.43;2.65;;;;;;;7.33;62.66;101041.88;5030413;28;20390;-73
2021/05/03 07:23:55;;;;;;;5.13;2.47;;;;;;;7.40;63.17;101044.63;5030608;28;20037;-73
2021/05/03 07:26:20;;;;;;;6.35;2.45;;;;;;;7.57;63.65;101043.97;5026751;28;20052;-72
2021/05/03 07:28:46;;;;;;;5.05;2.17;;;;;;;7.85;62.50;101045.25;5029329;28;20046;-73
2021/05/03 07:31:11;;;;;;;6.25;2.15;;;;;;;7.97;61.05;101044.53;5030575;28;20041;-73
2021/05/03 07:33:36;;;;;;;7.82;2.30;;;;;;;8.13;60.24;101041.22;5030492;28;20112;-73
2021/05/03 07:36:02;;;;;;;4.32;2.20;;;;;;;7.92;60.45;101059.38;5030105;28;20132;-73
2021/05/03 07:38:27;;;;;;;3.95;2.28;;;;;;;8.06;59.18;101058.66;5034450;28;20087;-73
2021/05/03 07:40:52;;;;;;;5.40;2.00;;;;;;;7.98;60.82;101054.19;5034277;28;20030;-73
2021/05/03 07:43:20;;;;;;;5.10;2.25;;;;;;;7.98;60.01;101041.03;5033942;28;20040;-73
2021/05/03 07:45:45;;;;;;;4.93;1.80;;;;;;;8.02;60.21;101054.25;5033764;28;20037;-73
2021/05/03 07:48:10;;;;;;;4.80;1.55;;;;;;;8.22;58.71;101054.47;5034186;28;20128;-73
2021/05/03 07:50:37;;;;;;;5.60;1.73;;;;;;;8.38;58.19;101055.53;5034083;28;20116;-73
2021/05/03 07:53:03;;;;;;;3.08;1.60;;;;;;;8.49;58.03;101047.81;5033835;28;20037;-72
2021/05/03 07:55:29;;;;;;;4.22;1.60;;;;;;;8.42;58.13;101069.66;5033911;28;20025;-72
2021/05/03 07:57:55;;;;;;;4.30;1.45;;;;;;;8.09;58.51;101049.94;5034063;28;20426;-74
2021/05/03 08:00:20;;;;;;;3.88;1.52;;;;;;;8.08;58.33;101056.06;5034227;28;20045;-73
2021/05/03 08:02:46;;;;;;;4.20;1.70;;;;;;;8.20;59.48;101058.84;5033517;28;20036;-73
2021/05/03 08:05:11;;;;;;;4.68;1.55;;;;;;;8.51;59.46;101056.59;5033683;28;20048;-73
2021/05/03 08:07:38;;;;;;;3.22;1.48;;;;;;;8.80;58.74;101056.00;5033791;28;20040;-73
2021/05/03 08:10:05;;;;;;;3.47;1.52;;;;;;;9.07;56.04;101061.53;5033754;28;20103;-72
2021/05/03 08:12:30;;;;;;;5.05;1.75;;;;;;;8.95;56.15;101064.03;5032362;28;20030;-73
2021/05/03 08:14:58;;;;;;;3.33;1.60;;;;;;;9.16;56.04;101053.69;5033668;28;20505;-73
2021/05/03 08:17:23;;;;;;;6.45;1.60;;;;;;;9.15;55.79;101054.56;5033734;28;20393;-73
2021/05/03 08:19:49;;;;;;;4.07;1.90;;;;;;;9.14;56.15;101065.97;5033409;28;20056;-73
2021/05/03 08:22:15;;;;;;;3.40;1.73;;;;;;;8.98;55.48;101090.38;5032005;28;20107;-73
2021/05/03 08:24:40;;;;;;;4.63;1.52;;;;;;;8.92;55.76;101059.63;5033530;28;20069;-73
2021/05/03 08:27:06;;;;;;;3.65;1.20;;;;;;;8.77;54.86;101072.63;5033372;28;20034;-73
2021/05/03 08:29:33;;;;;;;2.35;1.13;;;;;;;8.76;55.73;101060.34;5033124;28;20171;-73
2021/05/03 08:31:58;;;;;;;2.83;1.52;;;;;;;8.75;54.75;101067.38;5033458;28;20392;-73
2021/05/03 08:34:25;;;;;;;4.13;1.20;;;;;;;8.63;54.75;101069.00;5033235;28;20026;-73
2021/05/03 08:36:53;;;;;;;2.50;1.15;;;;;;;8.54;55.03;101069.75;5031981;28;20481;-73
2021/05/03 08:39:20;;;;;;;4.63;1.55;;;;;;;8.44;56.16;101070.56;5032046;28;20033;-73
2021/05/03 08:41:46;;;;;;;3.50;1.35;;;;;;;8.48;54.48;101064.44;5032927;28;20441;-74
2021/05/03 08:44:11;;;;;;;5.95;1.80;;;;;;;8.69;54.99;101069.94;5033020;28;20029;-73
2021/05/03 08:46:41;;;;;;;4.93;1.67;;;;;;;9.13;53.12;101056.28;5032674;28;20033;-73
2021/05/03 08:51:46;;;;;;;3.20;1.40;;;;;;;8.98;55.26;101064.06;5032860;28;20056;-73
2021/05/03 08:54:25;;;;;;;5.55;1.80;;;;;;;9.05;54.29;101065.00;5033008;28;20060;-73
2021/05/03 08:56:50;;;;;;;2.38;1.27;;;;;;;9.17;52.60;101076.53;5029893;28;20037;-73
2021/05/03 08:59:16;;;;;;;3.15;1.33;;;;;;;9.21;51.85;101080.94;5033248;28;20576;-73
2021/05/03 09:01:54;;;;;;;4.68;1.40;;;;;;;9.24;52.32;101066.03;5032579;28;20041;-73
2021/05/03 09:04:20;;;;;;;4.50;1.10;;;;;;;9.19;50.49;101064.22;5032722;28;20040;-74
2021/05/03 09:07:04;;;;;;;3.55;1.20;;;;;;;9.03;51.01;101064.97;5032639;28;20033;-73
2021/05/03 09:09:36;;;;;;;3.00;1.17;;;;;;;8.81;51.82;101081.47;5030192;28;20060;-73
2021/05/03 09:12:12;;;;;;;2.58;1.20;;;;;;;8.69;52.43;101066.41;5022195;28;20030;-73
2021/05/03 09:14:49;;;;;;;3.10;1.40;;;;;;;8.93;53.77;101066.69;5028286;28;20036;-73
2021/05/03 09:17:29;;;;;;;4.05;1.50;;;;;;;9.44;52.72;101064.44;5038414;28;20043;-74
2021/05/03 09:20:00;;;;;;;3.50;1.55;;;;;;;9.85;51.76;101050.59;5034405;28;20025;-73
2021/05/03 09:22:37;;;;;;;3.08;1.30;;;;;;;10.09;49.42;101048.09;5031089;28;20512;-74
2021/05/03 09:25:20;;;;;;;2.45;1.15;;;;;;;9.93;49.66;101054.19;5030633;28;20044;-73
2021/05/03 09:27:46;;;;;;;2.88;1.10;;;;;;;9.73;49.18;101058.47;5032559;28;20037;-73
2021/05/03 09:30:13;;;;;;;3.10;1.25;;;;;;;9.91;49.16;101050.66;5032219;28;20037;-73
2021/05/03 09:32:40;;;;;;;2.42;1.20;;;;;;;10.42;49.76;101054.38;5031923;28;20041;-74
2021/05/03 09:35:05;;;;;;;4.00;1.20;;;;;;;10.86;48.89;101061.53;5030752;28;20630;-74
2021/05/03 09:37:34;;;;;;;2.97;1.08;;;;;;;10.85;47.26;101056.25;5030786;28;20037;-73
2021/05/03 09:40:12;;;;;;;2.40;1.05;;;;;;;10.73;45.43;101046.53;5032458;28;20123;-74
2021/05/03 09:42:57;;;;;;;3.85;1.17;;;;;;;10.72;44.68;101053.59;5031657;28;20124;-74
2021/05/03 09:45:24;;;;;;;3.92;1.17;;;;;;;10.61;43.83;101057.97;5031665;28;20096;-74
2021/05/03 09:47:51;;;;;;;2.53;0.95;;;;;;;10.86;46.03;101060.66;5031987;28;20045;-75
2021/05/03 09:50:20;;;;;;;2.78;1.17;;;;;;;10.94;47.04;101062.41;5034575;28;20409;-74
2021/05/03 09:53:06;;;;;;;2.65;1.38;;;;;;;10.54;44.77;101037.72;5035419;28;20053;-74
2021/05/03 09:55:48;;;;;;;3.58;1.35;;;;;;;10.43;47.04;101034.19;5031592;28;20584;-74
2021/05/03 09:58:19;;;;;;;3.38;1.30;;;;;;;10.38;45.93;101031.53;5031758;28;20037;-74
2021/05/03 10:00:49;;;;;;;4.57;1.20;;;;;;;10.29;45.56;101032.38;5027272;28;20079;-74
2021/05/03 10:03:29;;;;;;;2.63;1.00;;;;;;;10.36;45.20;101033.28;5030592;28;20520;-75
2021/05/03 10:05:55;;;;;;;2.63;1.00;;;;;;;10.16;45.09;101040.19;5032514;28;20084;-74
2021/05/03 10:08:21;;;;;;;5.35;1.38;;;;;;;10.07;45.65;101047.22;5032156;28;20501;-73
2021/05/03 10:10:50;;;;;;;2.67;0.95;;;;;;;10.15;46.30;101044.59;5031483;28;20044;-73
2021/05/03 10:13:15;;;;;;;3.45;1.10;;;;;;;10.72;46.25;101042.16;5027365;28;20174;-74
2021/05/03 10:15:41;;;;;;;2.83;1.00;;;;;;;10.52;44.82;101034.19;5031242;28;20537;-74
2021/05/03 10:18:07;;;;;;;4.22;1.20;;;;;;;10.61;45.00;101030.69;5030914;28;20171;-74
2021/05/03 10:20:33;;;;;;;2.92;1.40;;;;;;;10.50;46.68;101031.53;5031212;28;20037;-73
2021/05/03 10:22:58;;;;;;;5.55;1.30;;;;;;;11.03;46.20;101023.66;5030785;28;20394;-74
2021/05/03 10:25:24;;;;;;;2.90;1.10;;;;;;;11.00;44.14;101026.31;5030681;28;20411;-74
2021/05/03 10:27:52;;;;;;;2.22;1.20;;;;;;;10.95;44.52;101027.22;5031386;28;20497;-74
2021/05/03 10:30:22;;;;;;;1.98;1.25;;;;;;;11.08;43.62;101013.97;5030996;28;20500;-74
2021/05/03 10:33:10;;;;;;;2.70;1.50;;;;;;;10.97;44.05;101008.72;5029640;28;20097;-74
2021/05/03 10:35:48;;;;;;;2.78;1.35;;;;;;;11.48;43.08;101013.97;5029986;28;20083;-74
2021/05/03 10:38:30;;;;;;;4.20;1.23;;;;;;;11.41;42.25;101040.38;5028114;28;20047;-74
2021/05/03 10:41:00;;;;;;;3.20;1.48;;;;;;;11.35;42.81;101021.91;5031066;28;20041;-73
2021/05/03 10:43:41;;;;;;;5.13;1.55;;;;;;;11.45;43.83;100998.06;5027215;28;20404;-73
2021/05/03 10:54:18;;;;;;;6.72;2.03;;;;;;;12.42;42.74;101003.91;4991426;28;20039;-75
2021/05/03 10:56:44;;;;;;;3.60;2.25;;;;;;;12.45;41.71;101015.34;4990117;28;20034;-74
2021/05/03 10:59:11;;;;;;;3.47;1.73;;;;;;;12.27;42.98;101004.84;5005371;28;20388;-73
2021/05/03 11:01:54;;;;;;;4.00;2.10;;;;;;;12.25;41.90;101009.28;4988214;28;20042;-74
2021/05/03 11:04:20;;;;;;;4.65;1.90;;;;;;;12.37;41.51;100998.63;4994697;28;20450;-74
2021/05/03 11:06:46;;;;;;;5.28;2.40;;;;;;;12.62;42.87;101007.28;4998027;28;20502;-74
2021/05/03 11:11:57;;;;;;;3.53;1.70;;;;;;;12.37;41.01;101001.28;4994856;28;20041;-74
2021/05/03 11:14:22;;;;;;;7.55;2.05;;;;;;;12.17;40.96;101001.38;5010784;28;20402;-73
2021/05/03 11:16:50;;;;;;;3.00;1.67;;;;;;;12.19;41.94;100994.31;4996622;28;20053;-72
2021/05/03 11:19:35;;;;;;;3.53;1.70;;;;;;;12.32;42.35;100995.13;5010427;28;20149;-73
2021/05/03 11:22:01;;;;;;;5.38;2.10;;;;;;;12.98;40.55;101002.59;4995134;28;20049;-74
2021/05/03 11:24:32;;;;;;;2.70;1.65;;;;;;;12.85;41.51;100985.91;4995112;28;20399;-74
2021/05/03 11:27:18;;;;;;;5.95;2.50;;;;;;;13.02;39.98;100979.59;4991601;28;20034;-73
2021/05/03 11:29:55;;;;;;;2.63;1.60;;;;;;;13.33;38.94;100980.19;4995163;28;20034;-74
2021/05/03 11:32:30;;;;;;;2.90;1.60;;;;;;;13.15;38.65;100989.19;4994761;28;20069;-74
2021/05/03 11:35:10;;;;;;;3.05;2.00;;;;;;;13.34;38.87;100972.25;5009999;28;20034;-74
2021/05/03 11:38:03;;;;;;;3.63;1.90;;;;;;;13.50;38.73;100991.53;4989508;28;20034;-74
2021/05/03 11:46:34;;;;;;;3.45;1.67;;;;;;;12.69;39.85;100979.88;4996594;28;20126;-75
2021/05/03 11:49:20;;;;;;;3.72;1.90;;;;;;;13.38;39.05;100976.59;4992698;28;20041;-76
2021/05/03 11:51:46;;;;;;;6.43;1.98;;;;;;;13.83;38.85;100981.41;4994733;28;20146;-76
2021/05/03 11:54:43;;;;;;;4.45;1.95;;;;;;;13.31;40.09;100966.97;5001328;28;20121;-76
2021/05/03 11:57:14;;;;;;;4.88;1.70;;;;;;;13.07;39.89;100965.44;4993173;28;20045;-75
2021/05/03 11:59:39;;;;;;;3.80;1.70;;;;;;;12.98;38.58;100986.69;5010187;28;20117;-76
2021/05/03 12:02:06;;;;;;;2.45;1.60;;;;;;;13.10;38.37;100972.47;4994224;28;20073;-73
2021/05/03 12:04:36;;;;;;;4.63;1.85;;;;;;;12.53;38.70;100972.94;4994339;28;20042;-74
2021/05/03 12:07:14;;;;;;;3.03;1.42;;;;;;;12.47;39.29;100980.91;5009584;28;20042;-74
2021/05/03 12:09:40;;;;;;;3.53;1.58;;;;;;;12.66;39.81;100965.78;4991294;28;20185;-73
2021/05/03 12:12:07;;;;;;;3.28;1.80;;;;;;;13.14;40.99;100959.16;4992811;28;20168;-74